createdAt,value
2022-09-23T00:00:02.615Z,8.9
2022-09-23T00:01:05.806Z,8.9
2022-09-23T00:02:09.564Z,8.9
2022-09-23T00:03:12.448Z,8.9
2022-09-23T00:04:16.343Z,8.9
2022-09-23T00:05:19.147Z,8.8
2022-09-23T00:06:21.853Z,8.8
2022-09-23T00:07:24.755Z,8.9
2022-09-23T00:08:27.751Z,8.9
2022-09-23T00:09:31.553Z,8.8
2022-09-23T00:10:34.989Z,8.8
2022-09-23T00:11:38.411Z,8.8
2022-09-23T00:12:40.398Z,8.7
2022-09-23T00:13:43.538Z,8.6
2022-09-23T00:14:46.713Z,8.7
2022-09-23T00:15:50.167Z,8.6
2022-09-23T00:16:52.993Z,8.7
2022-09-23T00:17:56.842Z,8.6
2022-09-23T00:18:59.963Z,8.6
2022-09-23T00:20:04.060Z,8.7
2022-09-23T00:21:07.215Z,8.7
2022-09-23T00:22:10.376Z,8.7
2022-09-23T00:23:13.564Z,8.7
2022-09-23T00:24:16.717Z,8.6
2022-09-23T00:25:19.881Z,8.7
2022-09-23T00:26:22.968Z,8.7
2022-09-23T00:27:25.867Z,8.8
2022-09-23T00:28:29.048Z,8.7
2022-09-23T00:29:32.386Z,8.6
2022-09-23T00:30:35.475Z,8.6
2022-09-23T00:31:38.400Z,8.6
2022-09-23T00:32:41.786Z,8.7
2022-09-23T00:33:44.630Z,8.6
2022-09-23T00:34:47.468Z,8.7
2022-09-23T00:35:51.337Z,8.7
2022-09-23T00:36:53.784Z,8.7
2022-09-23T00:37:56.954Z,8.6
2022-09-23T00:39:00.637Z,8.6
2022-09-23T00:40:04.048Z,8.6
2022-09-23T00:41:07.270Z,8.5
2022-09-23T00:42:10.219Z,8.5
2022-09-23T00:43:13.290Z,8.5
2022-09-23T00:44:16.371Z,8.5
2022-09-23T00:45:19.816Z,8.5
2022-09-23T00:46:23.508Z,8.5
2022-09-23T00:47:27.374Z,8.5
2022-09-23T00:48:30.646Z,8.5
2022-09-23T00:49:33.461Z,8.4
2022-09-23T00:50:36.073Z,8.4
2022-09-23T00:51:40.237Z,8.5
2022-09-23T00:52:43.680Z,8.4
2022-09-23T00:53:46.827Z,8.4
2022-09-23T00:54:49.363Z,8.4
2022-09-23T00:55:52.237Z,8.4
2022-09-23T00:56:55.342Z,8.4
2022-09-23T00:57:58.407Z,8.4
2022-09-23T00:59:01.402Z,8.4
2022-09-23T01:00:03.999Z,8.4
2022-09-23T01:01:07.713Z,8.4
2022-09-23T01:02:10.408Z,8.4
2022-09-23T01:03:13.569Z,8.3
2022-09-23T01:04:16.750Z,8.4
2022-09-23T01:05:19.853Z,8.3
2022-09-23T01:06:22.952Z,8.4
2022-09-23T01:07:26.780Z,8.4
2022-09-23T01:08:29.588Z,8.3
2022-09-23T01:09:32.794Z,8.3
2022-09-23T01:10:35.387Z,8.2
2022-09-23T01:11:38.211Z,8.3
2022-09-23T01:12:41.665Z,8.4
2022-09-23T01:13:44.736Z,8.3
2022-09-23T01:14:47.610Z,8.3
2022-09-23T01:15:50.605Z,8.3
2022-09-23T01:16:53.956Z,8.3
2022-09-23T01:17:56.755Z,8.3
2022-09-23T01:18:59.613Z,8.4
2022-09-23T01:20:02.683Z,8.3
2022-09-23T01:21:06.124Z,8.3
2022-09-23T01:22:09.801Z,8.3
2022-09-23T01:23:13.731Z,8.2
2022-09-23T01:24:16.605Z,8.2
2022-09-23T01:25:19.669Z,8.3
2022-09-23T01:26:22.622Z,8.2
2022-09-23T01:27:25.454Z,8.2
2022-09-23T01:28:27.886Z,8.2
2022-09-23T01:29:31.130Z,8.2
2022-09-23T01:30:34.173Z,8.2
2022-09-23T01:31:37.663Z,8.2
2022-09-23T01:32:40.184Z,8.1
2022-09-23T01:33:42.910Z,8.1
2022-09-23T01:34:46.063Z,8.1
2022-09-23T01:35:48.516Z,8.2
2022-09-23T01:36:51.599Z,8.2
2022-09-23T01:37:54.177Z,8.1
2022-09-23T01:38:58.316Z,8.2
2022-09-23T01:40:02.083Z,8.1
2022-09-23T01:41:05.409Z,8.1
2022-09-23T01:42:08.198Z,8.1
2022-09-23T01:43:11.073Z,8.1
2022-09-23T01:44:13.858Z,8.1
2022-09-23T01:45:16.934Z,8
2022-09-23T01:46:19.802Z,8.1
2022-09-23T01:47:22.690Z,8.1
2022-09-23T01:48:25.792Z,8.1
2022-09-23T01:49:28.716Z,8
2022-09-23T01:50:31.592Z,8
2022-09-23T01:51:34.578Z,8.1
2022-09-23T01:52:37.958Z,8
2022-09-23T01:53:41.443Z,7.9
2022-09-23T01:54:45.325Z,8
2022-09-23T01:55:48.324Z,8
2022-09-23T01:56:51.706Z,7.9
2022-09-23T01:57:55.053Z,7.9
2022-09-23T01:58:57.853Z,8
2022-09-23T02:00:00.446Z,8
2022-09-23T02:01:03.713Z,8
2022-09-23T02:02:07.433Z,8
2022-09-23T02:03:11.268Z,7.9
2022-09-23T02:04:14.426Z,7.9
2022-09-23T02:05:17.641Z,7.9
2022-09-23T02:06:20.837Z,7.9
2022-09-23T02:07:23.910Z,7.9
2022-09-23T02:08:27.001Z,7.8
2022-09-23T02:09:30.096Z,7.8
2022-09-23T02:10:34.284Z,7.9
2022-09-23T02:11:37.795Z,7.8
2022-09-23T02:12:40.855Z,7.8
2022-09-23T02:13:43.550Z,7.9
2022-09-23T02:14:46.890Z,7.8
2022-09-23T02:15:49.976Z,7.8
2022-09-23T02:16:54.017Z,7.8
2022-09-23T02:17:57.296Z,7.8
2022-09-23T02:19:00.978Z,7.8
2022-09-23T02:20:04.115Z,7.8
2022-09-23T02:21:06.634Z,7.9
2022-09-23T02:22:09.694Z,7.8
2022-09-23T02:23:12.491Z,7.8
2022-09-23T02:24:15.574Z,7.8
2022-09-23T02:25:18.776Z,7.8
2022-09-23T02:26:22.679Z,7.8
2022-09-23T02:27:26.054Z,7.8
2022-09-23T02:28:29.126Z,7.8
2022-09-23T02:29:31.926Z,7.8
2022-09-23T02:30:34.799Z,7.8
2022-09-23T02:31:38.341Z,7.8
2022-09-23T02:32:42.122Z,7.8
2022-09-23T02:33:45.002Z,7.8
2022-09-23T02:34:48.181Z,7.7
2022-09-23T02:35:51.240Z,7.7
2022-09-23T02:36:54.587Z,7.8
2022-09-23T02:37:57.567Z,7.7
2022-09-23T02:39:00.277Z,7.7
2022-09-23T02:40:03.472Z,7.7
2022-09-23T02:41:06.467Z,7.7
2022-09-23T02:42:10.590Z,7.7
2022-09-23T02:43:13.664Z,7.7
2022-09-23T02:44:17.005Z,7.8
2022-09-23T02:45:20.423Z,7.7
2022-09-23T02:46:24.144Z,7.7
2022-09-23T02:47:27.042Z,7.7
2022-09-23T02:48:30.099Z,7.7
2022-09-23T02:49:32.886Z,7.6
2022-09-23T02:50:35.572Z,7.6
2022-09-23T02:51:38.925Z,7.6
2022-09-23T02:52:41.746Z,7.7
2022-09-23T02:53:44.897Z,7.6
2022-09-23T02:54:47.524Z,7.5
2022-09-23T02:55:50.748Z,7.6
2022-09-23T02:56:54.209Z,7.6
2022-09-23T02:57:58.300Z,7.6
2022-09-23T02:59:02.076Z,7.6
2022-09-23T03:00:05.156Z,7.5
2022-09-23T03:01:08.451Z,7.5
2022-09-23T03:02:11.988Z,7.5
2022-09-23T03:03:15.124Z,7.5
2022-09-23T03:04:18.196Z,7.6
2022-09-23T03:05:21.077Z,7.6
2022-09-23T03:06:24.732Z,7.6
2022-09-23T03:07:28.199Z,7.6
2022-09-23T03:08:31.077Z,7.5
2022-09-23T03:09:33.681Z,7.5
2022-09-23T03:10:36.832Z,7.5
2022-09-23T03:11:40.570Z,7.5
2022-09-23T03:12:43.482Z,7.5
2022-09-23T03:13:47.327Z,7.5
2022-09-23T03:14:49.573Z,7.4
2022-09-23T03:15:52.645Z,7.5
2022-09-23T03:16:55.794Z,7.4
2022-09-23T03:17:58.668Z,7.5
2022-09-23T03:19:01.480Z,7.5
2022-09-23T03:20:05.183Z,7.4
2022-09-23T03:21:07.800Z,7.5
2022-09-23T03:22:10.954Z,7.4
2022-09-23T03:23:13.635Z,7.4
2022-09-23T03:24:16.900Z,7.4
2022-09-23T03:25:19.682Z,7.4
2022-09-23T03:26:22.965Z,7.4
2022-09-23T03:27:26.414Z,7.4
2022-09-23T03:28:29.694Z,7.4
2022-09-23T03:29:33.791Z,7.4
2022-09-23T03:30:36.882Z,7.4
2022-09-23T03:31:40.398Z,7.4
2022-09-23T03:32:44.070Z,7.4
2022-09-23T03:33:47.322Z,7.4
2022-09-23T03:34:50.103Z,7.3
2022-09-23T03:35:53.531Z,7.3
2022-09-23T03:36:56.514Z,7.3
2022-09-23T03:37:59.947Z,7.4
2022-09-23T03:39:03.230Z,7.4
2022-09-23T03:40:06.897Z,7.3
2022-09-23T03:41:09.409Z,7.3
2022-09-23T03:42:12.211Z,7.3
2022-09-23T03:43:14.950Z,7.3
2022-09-23T03:44:17.817Z,7.4
2022-09-23T03:45:22.488Z,7.4
2022-09-23T03:46:25.417Z,7.3
2022-09-23T03:47:29.040Z,7.3
2022-09-23T03:48:32.369Z,7.3
2022-09-23T03:49:35.231Z,7.3
2022-09-23T03:50:38.095Z,7.3
2022-09-23T03:51:46.150Z,7.3
2022-09-23T03:52:48.659Z,7.3
2022-09-23T03:53:51.528Z,7.3
2022-09-23T03:54:54.971Z,7.3
2022-09-23T03:55:58.691Z,7.3
2022-09-23T03:57:01.595Z,7.4
2022-09-23T03:58:04.115Z,7.4
2022-09-23T03:59:07.594Z,7.4
2022-09-23T04:00:11.049Z,7.3
2022-09-23T04:01:16.160Z,7.3
2022-09-23T04:02:19.374Z,7.3
2022-09-23T04:03:22.772Z,7.3
2022-09-23T04:04:25.937Z,7.3
2022-09-23T04:05:29.202Z,7.4
2022-09-23T04:06:32.058Z,7.4
2022-09-23T04:07:35.759Z,7.4
2022-09-23T04:08:39.476Z,7.3
2022-09-23T04:09:42.542Z,7.4
2022-09-23T04:10:55.091Z,7.3
2022-09-23T04:11:59.114Z,7.4
2022-09-23T04:13:02.533Z,7.4
2022-09-23T04:14:05.686Z,7.3
2022-09-23T04:15:08.887Z,7.3
2022-09-23T04:16:12.331Z,7.4
2022-09-23T04:17:16.237Z,7.4
2022-09-23T04:18:19.298Z,7.3
2022-09-23T04:19:21.886Z,7.3
2022-09-23T04:20:25.039Z,7.3
2022-09-23T04:21:27.273Z,7.3
2022-09-23T04:22:29.866Z,7.3
2022-09-23T04:23:31.740Z,7.3
2022-09-23T04:24:34.338Z,7.4
2022-09-23T04:25:37.393Z,7.3
2022-09-23T04:26:40.066Z,7.3
2022-09-23T04:27:43.434Z,7.3
2022-09-23T04:28:46.314Z,7.3
2022-09-23T04:29:49.453Z,7.4
2022-09-23T04:30:52.822Z,7.3
2022-09-23T04:31:55.963Z,7.3
2022-09-23T04:32:59.983Z,7.3
2022-09-23T04:34:03.155Z,7.3
2022-09-23T04:35:05.956Z,7.3
2022-09-23T04:36:08.924Z,7.3
2022-09-23T04:37:12.096Z,7.3
2022-09-23T04:38:15.525Z,7.4
2022-09-23T04:39:18.479Z,7.3
2022-09-23T04:40:21.734Z,7.3
2022-09-23T04:41:24.281Z,7.3
2022-09-23T04:42:27.559Z,7.3
2022-09-23T04:43:31.102Z,7.3
2022-09-23T04:44:34.258Z,7.3
2022-09-23T04:45:36.787Z,7.3
2022-09-23T04:46:40.444Z,7.3
2022-09-23T04:47:44.004Z,7.4
2022-09-23T04:48:47.897Z,7.2
2022-09-23T04:49:51.557Z,7.2
2022-09-23T04:50:54.505Z,7.4
2022-09-23T04:51:57.925Z,7.3
2022-09-23T04:53:01.076Z,7.3
2022-09-23T04:54:04.233Z,7.3
2022-09-23T04:55:12.857Z,7.3
2022-09-23T04:56:16.296Z,7.4
2022-09-23T04:57:19.353Z,7.3
2022-09-23T04:58:22.148Z,7.3
2022-09-23T04:59:25.133Z,7.3
2022-09-23T05:00:28.504Z,7.4
2022-09-23T05:01:31.947Z,7.3
2022-09-23T05:02:35.077Z,7.4
2022-09-23T05:03:37.635Z,7.5
2022-09-23T05:04:41.534Z,7.5
2022-09-23T05:05:44.520Z,7.5
2022-09-23T05:06:47.304Z,7.5
2022-09-23T05:07:50.479Z,7.6
2022-09-23T05:08:53.737Z,7.5
2022-09-23T05:09:56.542Z,7.5
2022-09-23T05:10:59.655Z,7.6
2022-09-23T05:12:02.729Z,7.6
2022-09-23T05:13:05.586Z,7.6
2022-09-23T05:14:08.733Z,7.6
2022-09-23T05:15:12.187Z,7.7
2022-09-23T05:16:15.849Z,7.6
2022-09-23T05:17:19.074Z,7.7
2022-09-23T05:18:22.606Z,7.7
2022-09-23T05:19:25.998Z,7.6
2022-09-23T05:20:29.989Z,7.7
2022-09-23T05:21:33.439Z,7.7
2022-09-23T05:22:36.519Z,7.7
2022-09-23T05:23:39.320Z,7.7
2022-09-23T05:24:42.209Z,7.8
2022-09-23T05:25:45.359Z,7.8
2022-09-23T05:26:48.775Z,7.8
2022-09-23T05:27:52.000Z,7.8
2022-09-23T05:28:54.944Z,7.9
2022-09-23T05:29:58.368Z,7.9
2022-09-23T05:31:01.706Z,7.8
2022-09-23T05:32:05.297Z,7.8
2022-09-23T05:33:08.013Z,7.9
2022-09-23T05:34:11.403Z,7.9
2022-09-23T05:35:14.366Z,8
2022-09-23T05:36:18.570Z,8
2022-09-23T05:37:21.162Z,8
2022-09-23T05:38:23.673Z,8.1
2022-09-23T05:39:26.822Z,8.1
2022-09-23T05:40:30.154Z,8.1
2022-09-23T05:41:32.833Z,8.1
2022-09-23T05:42:35.550Z,8.1
2022-09-23T05:43:38.655Z,8
2022-09-23T05:44:41.803Z,8
2022-09-23T05:45:44.124Z,8.1
2022-09-23T05:46:47.596Z,8.1
2022-09-23T05:47:50.525Z,8.1
2022-09-23T05:48:53.596Z,8.1
2022-09-23T05:50:02.323Z,8.1
2022-09-23T05:51:05.343Z,8.1
2022-09-23T05:52:09.280Z,8.1
2022-09-23T05:53:12.456Z,8.1
2022-09-23T05:54:15.531Z,8.2
2022-09-23T05:55:18.339Z,8.2
2022-09-23T05:56:21.051Z,8.2
2022-09-23T05:57:23.860Z,8.3
2022-09-23T05:58:27.668Z,8.3
2022-09-23T05:59:30.832Z,8.3
2022-09-23T06:00:34.289Z,8.3
2022-09-23T06:01:37.935Z,8.4
2022-09-23T06:02:41.254Z,8.3
2022-09-23T06:03:44.177Z,8.4
2022-09-23T06:04:47.271Z,8.4
2022-09-23T06:05:50.222Z,8.4
2022-09-23T06:06:53.637Z,8.5
2022-09-23T06:07:57.551Z,8.5
2022-09-23T06:09:01.057Z,8.5
2022-09-23T06:10:04.582Z,8.5
2022-09-23T06:11:07.171Z,8.5
2022-09-23T06:12:10.074Z,8.5
2022-09-23T06:13:12.943Z,8.6
2022-09-23T06:14:16.909Z,8.6
2022-09-23T06:15:19.869Z,8.5
2022-09-23T06:16:23.434Z,8.5
2022-09-23T06:17:26.074Z,8.5
2022-09-23T06:18:29.440Z,8.6
2022-09-23T06:19:32.155Z,8.6
2022-09-23T06:20:35.225Z,8.5
2022-09-23T06:21:38.586Z,8.6
2022-09-23T06:22:42.231Z,8.6
2022-09-23T06:23:46.319Z,8.7
2022-09-23T06:24:49.099Z,8.7
2022-09-23T06:25:52.166Z,8.7
2022-09-23T06:26:55.508Z,8.7
2022-09-23T06:27:58.878Z,8.7
2022-09-23T06:29:01.598Z,8.7
2022-09-23T06:30:04.742Z,8.6
2022-09-23T06:31:15.114Z,8.8
2022-09-23T06:32:18.880Z,8.7
2022-09-23T06:33:38.318Z,8.7
2022-09-23T06:34:53.626Z,8.8
2022-09-23T06:36:01.603Z,8.8
2022-09-23T06:37:22.065Z,8.8
2022-09-23T06:38:25.192Z,8.9
2022-09-23T06:39:29.305Z,8.8
2022-09-23T06:40:32.646Z,8.9
2022-09-23T06:41:35.675Z,8.9
2022-09-23T06:42:38.502Z,8.9
2022-09-23T06:43:42.293Z,8.9
2022-09-23T06:44:45.665Z,8.9
2022-09-23T06:45:49.007Z,8.9
2022-09-23T06:46:52.377Z,8.9
2022-09-23T06:47:55.639Z,9
2022-09-23T06:48:58.263Z,9.1
2022-09-23T06:50:01.990Z,9.1
2022-09-23T06:51:03.950Z,9
2022-09-23T06:52:06.461Z,8.9
2022-09-23T06:53:08.872Z,9
2022-09-23T06:54:12.629Z,9
2022-09-23T06:55:16.429Z,9
2022-09-23T06:56:18.948Z,9.1
2022-09-23T06:57:22.325Z,9.1
2022-09-23T06:58:25.477Z,9.1
2022-09-23T06:59:28.850Z,9.1
2022-09-23T07:00:31.827Z,9.1
2022-09-23T07:01:36.304Z,9.1
2022-09-23T07:02:40.846Z,9.2
2022-09-23T07:03:44.344Z,9.2
2022-09-23T07:04:47.717Z,9.2
2022-09-23T07:05:50.965Z,9.2
2022-09-23T07:06:54.045Z,9.2
2022-09-23T07:07:56.848Z,9.2
2022-09-23T07:09:00.642Z,9.2
2022-09-23T07:10:04.250Z,9.3
2022-09-23T07:11:08.480Z,9.4
2022-09-23T07:12:11.940Z,9.4
2022-09-23T07:13:18.237Z,9.3
2022-09-23T07:14:21.393Z,9.4
2022-09-23T07:15:24.216Z,9.4
2022-09-23T07:16:27.861Z,9.4
2022-09-23T07:17:31.428Z,9.6
2022-09-23T07:18:38.819Z,9.6
2022-09-23T07:19:41.237Z,9.6
2022-09-23T07:20:44.188Z,9.7
2022-09-23T07:21:47.342Z,9.8
2022-09-23T07:22:49.859Z,9.8
2022-09-23T07:23:53.234Z,9.7
2022-09-23T07:24:56.917Z,9.8
2022-09-23T07:26:00.168Z,9.8
2022-09-23T07:27:04.382Z,9.8
2022-09-23T07:28:06.928Z,9.8
2022-09-23T07:29:10.130Z,9.8
2022-09-23T07:30:26.901Z,9.9
2022-09-23T07:31:41.341Z,10
2022-09-23T07:32:51.087Z,9.9
2022-09-23T07:33:54.151Z,9.9
2022-09-23T07:34:56.669Z,10
2022-09-23T07:35:59.456Z,10
2022-09-23T07:37:02.456Z,10
2022-09-23T07:38:05.875Z,10.1
2022-09-23T07:39:09.399Z,10
2022-09-23T07:40:13.566Z,10.1
2022-09-23T07:41:17.162Z,10.2
2022-09-23T07:42:21.271Z,10.3
2022-09-23T07:43:25.070Z,10.3
2022-09-23T07:44:28.063Z,10.4
2022-09-23T07:45:31.139Z,10.4
2022-09-23T07:46:34.539Z,10.5
2022-09-23T07:47:37.038Z,10.6
2022-09-23T07:48:40.124Z,10.5
2022-09-23T07:49:43.550Z,10.6
2022-09-23T07:50:46.618Z,10.8
2022-09-23T07:51:50.341Z,10.8
2022-09-23T07:52:53.780Z,10.9
2022-09-23T07:53:56.937Z,11
2022-09-23T07:55:00.107Z,11
2022-09-23T07:56:02.957Z,11.1
2022-09-23T07:57:06.325Z,10.9
2022-09-23T07:58:10.240Z,11
2022-09-23T07:59:13.218Z,11.1
2022-09-23T08:00:15.732Z,11
2022-09-23T08:01:19.821Z,10.9
2022-09-23T08:02:23.546Z,11
2022-09-23T08:03:26.606Z,11
2022-09-23T08:04:29.354Z,11
2022-09-23T08:05:32.496Z,11.1
2022-09-23T08:06:35.231Z,11.2
2022-09-23T08:07:38.104Z,11.4
2022-09-23T08:08:40.658Z,11.3
2022-09-23T08:09:43.616Z,11.4
2022-09-23T08:10:46.672Z,11.4
2022-09-23T08:11:49.898Z,11.4
2022-09-23T08:12:53.105Z,11.4
2022-09-23T08:13:56.955Z,11.3
2022-09-23T08:14:59.757Z,11.3
2022-09-23T08:16:03.260Z,11.3
2022-09-23T08:17:07.382Z,11.4
2022-09-23T08:18:09.958Z,11.4
2022-09-23T08:19:12.762Z,11.4
2022-09-23T08:20:15.383Z,11.5
2022-09-23T08:21:18.809Z,11.5
2022-09-23T08:22:21.779Z,11.7
2022-09-23T08:23:25.142Z,11.6
2022-09-23T08:24:27.951Z,11.7
2022-09-23T08:25:36.264Z,11.8
2022-09-23T08:26:39.637Z,11.8
2022-09-23T08:27:43.320Z,11.7
2022-09-23T08:28:46.703Z,11.8
2022-09-23T08:29:50.721Z,11.9
2022-09-23T08:30:53.999Z,11.7
2022-09-23T08:31:56.821Z,11.8
2022-09-23T08:32:59.620Z,11.9
2022-09-23T08:34:03.067Z,11.9
2022-09-23T08:35:06.065Z,12
2022-09-23T08:36:08.900Z,11.9
2022-09-23T08:37:12.124Z,12.1
2022-09-23T08:38:15.579Z,12.1
2022-09-23T08:39:18.467Z,12.1
2022-09-23T08:40:22.515Z,12
2022-09-23T08:41:26.198Z,12.1
2022-09-23T08:42:29.620Z,12
2022-09-23T08:43:32.500Z,12.1
2022-09-23T08:44:34.874Z,12.2
2022-09-23T08:45:38.815Z,12.1
2022-09-23T08:46:42.245Z,12.1
2022-09-23T08:47:45.616Z,12.1
2022-09-23T08:48:48.226Z,12.1
2022-09-23T08:49:51.391Z,12.2
2022-09-23T08:50:54.000Z,12.3
2022-09-23T08:51:57.434Z,12.4
2022-09-23T08:53:00.823Z,12.4
2022-09-23T08:54:04.110Z,12.6
2022-09-23T08:55:07.458Z,12.6
2022-09-23T08:56:10.522Z,12.7
2022-09-23T08:57:13.065Z,12.7
2022-09-23T08:58:28.297Z,12.9
2022-09-23T08:59:31.205Z,13.1
2022-09-23T09:00:34.117Z,13.3
2022-09-23T09:01:38.677Z,13.1
2022-09-23T09:02:41.742Z,13.1
2022-09-23T09:03:45.232Z,13
2022-09-23T09:04:48.422Z,13.1
2022-09-23T09:05:55.643Z,13.1
2022-09-23T09:07:38.940Z,13.3
2022-09-23T09:08:42.520Z,13.3
2022-09-23T09:09:46.036Z,13.6
2022-09-23T09:10:48.549Z,13.6
2022-09-23T09:11:51.436Z,13.5
2022-09-23T09:12:54.536Z,13.5
2022-09-23T09:13:57.610Z,13.4
2022-09-23T09:15:00.794Z,13.5
2022-09-23T09:16:04.668Z,13.7
2022-09-23T09:17:08.869Z,13.7
2022-09-23T09:18:12.390Z,13.9
2022-09-23T09:19:15.596Z,13.8
2022-09-23T09:20:18.814Z,13.8
2022-09-23T09:21:22.106Z,13.8
2022-09-23T09:22:25.790Z,13.9
2022-09-23T09:23:28.956Z,13.9
2022-09-23T09:24:32.350Z,13.9
2022-09-23T09:25:36.335Z,14
2022-09-23T09:26:38.687Z,14.1
2022-09-23T09:27:41.197Z,14.3
2022-09-23T09:28:44.285Z,14.4
2022-09-23T09:29:50.514Z,14.7
2022-09-23T09:30:54.340Z,14.9
2022-09-23T09:31:57.211Z,14.9
2022-09-23T09:33:03.190Z,14.6
2022-09-23T09:34:05.254Z,14.6
2022-09-23T09:35:08.985Z,14.7
2022-09-23T09:36:11.489Z,14.4
2022-09-23T09:37:14.912Z,14.6
2022-09-23T09:38:17.633Z,15.1
2022-09-23T09:39:27.750Z,14.9
2022-09-23T09:40:31.251Z,15.1
2022-09-23T09:41:33.623Z,15.4
2022-09-23T09:42:36.498Z,15.2
2022-09-23T09:43:45.801Z,15.5
2022-09-23T09:44:48.043Z,15.8
2022-09-23T09:45:59.229Z,15.8
2022-09-23T09:47:02.161Z,16
2022-09-23T09:48:06.532Z,16.4
2022-09-23T09:49:09.504Z,16.4
2022-09-23T09:50:12.403Z,16.5
2022-09-23T09:51:15.756Z,16.4
2022-09-23T09:52:17.990Z,16.8
2022-09-23T09:53:21.011Z,17.2
2022-09-23T09:54:24.737Z,17.2
2022-09-23T09:55:26.897Z,17.1
2022-09-23T09:56:29.688Z,17
2022-09-23T09:57:37.801Z,16.7
2022-09-23T09:58:41.534Z,16.4
2022-09-23T09:59:43.783Z,16.2
2022-09-23T10:00:47.867Z,16.5
2022-09-23T10:01:51.493Z,16.2
2022-09-23T10:02:55.259Z,16.1
2022-09-23T10:04:01.666Z,16
2022-09-23T10:05:04.280Z,16.4
2022-09-23T10:06:07.518Z,16.5
2022-09-23T10:07:10.516Z,16.4
2022-09-23T10:08:13.396Z,16.7
2022-09-23T10:09:16.215Z,16.6
2022-09-23T10:10:34.951Z,16.5
2022-09-23T10:11:38.642Z,16.7
2022-09-23T10:12:41.740Z,17
2022-09-23T10:13:45.193Z,17.5
2022-09-23T10:14:47.710Z,17.7
2022-09-23T10:15:50.418Z,17.1
2022-09-23T10:16:53.835Z,17.5
2022-09-23T10:17:56.873Z,17.8
2022-09-23T10:19:00.149Z,17.7
2022-09-23T10:20:04.488Z,17.5
2022-09-23T10:21:08.214Z,17.5
2022-09-23T10:22:11.165Z,17.9
2022-09-23T10:23:14.308Z,18.5
2022-09-23T10:24:17.035Z,18.6
2022-09-23T10:25:20.781Z,17.8
2022-09-23T10:26:23.848Z,18.1
2022-09-23T10:27:26.905Z,18.6
2022-09-23T10:28:30.256Z,18
2022-09-23T10:29:32.908Z,18.5
2022-09-23T10:30:35.796Z,18.3
2022-09-23T10:31:38.695Z,18
2022-09-23T10:32:41.767Z,18.2
2022-09-23T10:33:45.177Z,18.6
2022-09-23T10:34:48.566Z,19
2022-09-23T10:35:52.700Z,19.2
2022-09-23T10:36:55.132Z,19
2022-09-23T10:37:58.874Z,18.9
2022-09-23T10:39:02.246Z,18.8
2022-09-23T10:40:06.333Z,18.6
2022-09-23T10:42:12.471Z,19.6
2022-09-23T10:43:15.548Z,19.2
2022-09-23T10:44:18.421Z,19.9
2022-09-23T10:45:22.069Z,19.9
2022-09-23T10:46:26.156Z,19.9
2022-09-23T10:47:29.466Z,19.3
2022-09-23T10:48:32.815Z,19.8
2022-09-23T10:49:35.876Z,20.2
2022-09-23T10:50:38.919Z,20.6
2022-09-23T10:51:43.027Z,20.4
2022-09-23T10:52:46.387Z,20.8
2022-09-23T10:53:49.102Z,19.7
2022-09-23T10:54:52.375Z,20.3
2022-09-23T10:55:55.723Z,20.4
2022-09-23T10:57:00.190Z,20.9
2022-09-23T10:58:03.509Z,20.2
2022-09-23T10:59:06.314Z,20.6
2022-09-23T11:00:09.469Z,21
2022-09-23T11:01:13.576Z,21.2
2022-09-23T11:02:16.548Z,21.4
2022-09-23T11:03:19.707Z,21.1
2022-09-23T11:04:23.430Z,21
2022-09-23T11:05:26.606Z,22
2022-09-23T11:06:30.012Z,22.5
2022-09-23T11:07:39.029Z,21.7
2022-09-23T11:08:41.817Z,22.3
2022-09-23T11:09:44.600Z,21.5
2022-09-23T11:10:48.863Z,20.9
2022-09-23T11:11:51.864Z,20.4
2022-09-23T11:12:54.311Z,20.4
2022-09-23T11:13:57.542Z,21.2
2022-09-23T11:15:00.250Z,21.6
2022-09-23T11:16:03.146Z,22
2022-09-23T11:17:06.629Z,22.1
2022-09-23T11:18:09.925Z,22.1
2022-09-23T11:19:13.660Z,22.9
2022-09-23T11:20:16.829Z,22.3
2022-09-23T11:21:20.221Z,22.2
2022-09-23T11:22:23.472Z,21.4
2022-09-23T11:23:27.285Z,20.6
2022-09-23T11:24:30.279Z,20.5
2022-09-23T11:25:33.634Z,20.9
2022-09-23T11:26:36.717Z,21.3
2022-09-23T11:27:39.845Z,20.8
2022-09-23T11:28:42.917Z,21
2022-09-23T11:29:45.999Z,21.4
2022-09-23T11:30:49.405Z,21
2022-09-23T11:31:59.516Z,21
2022-09-23T11:33:05.726Z,21.3
2022-09-23T11:34:09.882Z,21.7
2022-09-23T11:35:12.748Z,21.7
2022-09-23T11:36:16.183Z,21.6
2022-09-23T11:37:19.410Z,21.8
2022-09-23T11:38:22.527Z,22.2
2022-09-23T11:39:26.642Z,21.7
2022-09-23T11:40:30.363Z,21.5
2022-09-23T11:41:33.693Z,21.2
2022-09-23T11:42:35.851Z,21.8
2022-09-23T11:43:39.187Z,21.9
2022-09-23T11:44:41.503Z,21.1
2022-09-23T11:45:44.789Z,21.3
2022-09-23T11:46:47.301Z,22
2022-09-23T11:47:49.827Z,21.9
2022-09-23T11:48:53.263Z,21.9
2022-09-23T11:49:56.459Z,22.6
2022-09-23T11:50:59.685Z,21.9
2022-09-23T11:52:02.834Z,22
2022-09-23T11:53:05.974Z,21.6
2022-09-23T11:54:09.249Z,21.8
2022-09-23T11:55:24.785Z,22
2022-09-23T11:56:48.805Z,21.6
2022-09-23T11:57:52.565Z,22.6
2022-09-23T11:59:05.511Z,22.5
2022-09-23T12:00:09.436Z,22.8
2022-09-23T12:01:12.861Z,23.2
2022-09-23T12:02:31.813Z,23
2022-09-23T12:03:46.934Z,21.9
2022-09-23T12:05:00.693Z,22.3
2022-09-23T12:06:04.789Z,22.5
2022-09-23T12:07:07.586Z,23
2022-09-23T12:08:10.665Z,22.7
2022-09-23T12:09:14.228Z,22.2
2022-09-23T12:10:17.698Z,22.3
2022-09-23T12:11:21.101Z,22.8
2022-09-23T12:12:28.877Z,22.6
2022-09-23T12:13:31.873Z,22.4
2022-09-23T12:14:35.530Z,22.5
2022-09-23T12:15:38.956Z,21.7
2022-09-23T12:16:42.835Z,21.7
2022-09-23T12:17:45.973Z,21.8
2022-09-23T12:18:48.895Z,21.9
2022-09-23T12:19:52.075Z,21.9
2022-09-23T12:20:54.953Z,21.1
2022-09-23T12:21:58.307Z,20.7
2022-09-23T12:23:01.734Z,21.2
2022-09-23T12:24:05.502Z,21.6
2022-09-23T12:25:08.968Z,20.9
2022-09-23T12:26:12.458Z,20.9
2022-09-23T12:27:15.575Z,21
2022-09-23T12:28:19.026Z,20.5
2022-09-23T12:29:21.610Z,20.4
2022-09-23T12:30:25.424Z,20.1
2022-09-23T12:31:28.258Z,20.2
2022-09-23T12:32:31.417Z,20.2
2022-09-23T12:33:34.595Z,20.3
2022-09-23T12:34:37.471Z,19.9
2022-09-23T12:35:39.996Z,20.2
2022-09-23T12:36:43.498Z,20
2022-09-23T12:37:46.998Z,19.9
2022-09-23T12:38:50.217Z,19.8
2022-09-23T12:39:53.301Z,19.4
2022-09-23T12:40:57.079Z,19.5
2022-09-23T12:42:01.190Z,19.8
2022-09-23T12:43:05.060Z,19.5
2022-09-23T12:44:08.470Z,19.2
2022-09-23T12:45:11.063Z,19.2
2022-09-23T12:46:14.646Z,19.1
2022-09-23T12:47:17.722Z,18.8
2022-09-23T12:48:21.452Z,19.1
2022-09-23T12:49:25.000Z,19.3
2022-09-23T12:50:27.799Z,19.2
2022-09-23T12:51:30.322Z,19.5
2022-09-23T12:52:33.566Z,19.6
2022-09-23T12:53:36.119Z,19.4
2022-09-23T12:54:39.246Z,19.8
2022-09-23T12:55:42.434Z,19.8
2022-09-23T12:56:45.466Z,19.4
2022-09-23T12:57:48.935Z,19.5
2022-09-23T12:58:52.614Z,19.4
2022-09-23T12:59:55.686Z,19.5
2022-09-23T13:00:59.977Z,19.6
2022-09-23T13:02:04.580Z,19.4
2022-09-23T13:03:07.398Z,19.2
2022-09-23T13:04:10.185Z,19.1
2022-09-23T13:05:13.754Z,19
2022-09-23T13:06:16.024Z,19.3
2022-09-23T13:07:18.656Z,19
2022-09-23T13:08:22.398Z,19
2022-09-23T13:09:25.854Z,19
2022-09-23T13:10:28.462Z,19
2022-09-23T13:11:31.821Z,19
2022-09-23T13:12:35.240Z,18.8
2022-09-23T13:13:39.282Z,18.7
2022-09-23T13:14:42.658Z,19
2022-09-23T13:15:45.469Z,18.5
2022-09-23T13:16:49.441Z,18.3
2022-09-23T13:17:52.428Z,18.3
2022-09-23T13:18:55.465Z,18.4
2022-09-23T13:19:58.076Z,18.8
2022-09-23T13:21:01.499Z,19.1
2022-09-23T13:22:04.856Z,19
2022-09-23T13:23:07.653Z,19.1
2022-09-23T13:24:10.911Z,19.2
2022-09-23T13:25:14.283Z,19.1
2022-09-23T13:26:17.001Z,19
2022-09-23T13:27:20.185Z,18.7
2022-09-23T13:28:23.170Z,18.8
2022-09-23T13:29:26.688Z,18.5
2022-09-23T13:30:29.270Z,18.8
2022-09-23T13:31:33.745Z,18.7
2022-09-23T13:32:37.513Z,18.8
2022-09-23T13:33:41.344Z,18.4
2022-09-23T13:34:44.190Z,18.5
2022-09-23T13:35:47.102Z,18.3
2022-09-23T13:36:49.343Z,18.5
2022-09-23T13:37:52.165Z,18.4
2022-09-23T13:38:55.706Z,18.4
2022-09-23T13:39:57.895Z,18.3
2022-09-23T13:41:01.046Z,18.5
2022-09-23T13:42:03.839Z,18.3
2022-09-23T13:43:06.453Z,18.4
2022-09-23T13:44:10.160Z,18.5
2022-09-23T13:45:13.679Z,18.6
2022-09-23T13:46:17.945Z,18.4
2022-09-23T13:47:20.576Z,18.2
2022-09-23T13:48:23.593Z,18.5
2022-09-23T13:49:26.933Z,18.5
2022-09-23T13:50:36.464Z,18.7
2022-09-23T13:51:40.094Z,18.6
2022-09-23T13:52:43.260Z,18.8
2022-09-23T13:53:46.270Z,18.8
2022-09-23T13:54:49.615Z,18.6
2022-09-23T13:55:54.493Z,18.6
2022-09-23T13:56:57.962Z,18.6
2022-09-23T13:58:00.944Z,18.5
2022-09-23T13:59:04.333Z,18.6
2022-09-23T14:00:07.868Z,18.5
2022-09-23T14:01:12.498Z,18.5
2022-09-23T14:02:16.119Z,18.4
2022-09-23T14:03:19.686Z,18
2022-09-23T14:04:22.757Z,18
2022-09-23T14:05:25.803Z,18.1
2022-09-23T14:06:29.559Z,18.2
2022-09-23T14:07:32.664Z,18.2
2022-09-23T14:08:35.657Z,18.2
2022-09-23T14:09:38.627Z,18.4
2022-09-23T14:10:41.769Z,18.3
2022-09-23T14:11:45.219Z,18.3
2022-09-23T14:12:48.913Z,18.3
2022-09-23T14:13:51.974Z,18.3
2022-09-23T14:14:54.427Z,18.3
2022-09-23T14:15:58.211Z,18.1
2022-09-23T14:17:02.447Z,18.1
2022-09-23T14:18:05.690Z,18.3
2022-09-23T14:19:09.092Z,18.5
2022-09-23T14:20:11.635Z,18.4
2022-09-23T14:21:14.160Z,18.4
2022-09-23T14:22:16.701Z,18.2
2022-09-23T14:23:19.221Z,18.3
2022-09-23T14:24:22.129Z,18.3
2022-09-23T14:25:25.582Z,18
2022-09-23T14:26:28.303Z,18.1
2022-09-23T14:27:30.827Z,18